createdAt,value
2023-04-18T00:00:00.666Z,12.50
2023-04-18T00:02:29.696Z,12.54
2023-04-18T00:04:58.073Z,12.61
2023-04-18T00:07:26.378Z,12.67
2023-04-18T00:09:54.498Z,12.65
2023-04-18T00:12:22.633Z,12.67
2023-04-18T00:14:52.232Z,12.68
2023-04-18T00:17:22.374Z,12.78
2023-04-18T00:19:51.909Z,12.81
2023-04-18T00:22:22.686Z,12.81
2023-04-18T00:24:51.157Z,12.84
2023-04-18T00:27:19.947Z,12.94
2023-04-18T00:29:48.755Z,12.96
2023-04-18T00:32:17.832Z,12.89
2023-04-18T00:34:47.538Z,12.85
2023-04-18T00:37:15.713Z,12.85
2023-04-18T00:39:43.835Z,12.83
2023-04-18T00:42:11.933Z,12.84
2023-04-18T00:44:40.054Z,12.77
2023-04-18T00:47:08.111Z,12.80
2023-04-18T00:49:36.370Z,12.84
2023-04-18T00:52:06.061Z,12.87
2023-04-18T00:54:34.137Z,12.78
2023-04-18T00:57:02.834Z,12.75
2023-04-18T00:59:31.238Z,12.77
2023-04-18T01:01:59.419Z,12.73
2023-04-18T01:04:27.717Z,12.73
2023-04-18T01:06:56.860Z,12.65
2023-04-18T01:09:26.834Z,12.63
2023-04-18T01:12:01.895Z,12.65
2023-04-18T01:14:30.055Z,12.65
2023-04-18T01:16:58.859Z,12.68
2023-04-18T01:19:26.965Z,12.67
2023-04-18T01:21:55.234Z,12.67
2023-04-18T01:24:26.851Z,12.67
2023-04-18T01:26:54.851Z,12.61
2023-04-18T01:29:23.053Z,12.63
2023-04-18T01:31:51.163Z,12.57
2023-04-18T01:34:19.414Z,12.54
2023-04-18T01:36:47.810Z,12.54
2023-04-18T01:39:16.044Z,12.56
2023-04-18T01:41:45.621Z,12.53
2023-04-18T01:44:13.957Z,12.50
2023-04-18T01:46:42.375Z,12.43
2023-04-18T01:49:10.687Z,12.43
2023-04-18T01:51:39.971Z,12.41
2023-04-18T01:54:08.115Z,12.40
2023-04-18T01:56:36.494Z,12.43
2023-04-18T01:59:05.976Z,12.44
2023-04-18T02:01:34.105Z,12.43
2023-04-18T02:04:02.285Z,12.47
2023-04-18T02:06:31.000Z,12.51
2023-04-18T02:09:01.096Z,12.51
2023-04-18T02:11:29.265Z,12.50
2023-04-18T02:13:57.674Z,12.54
2023-04-18T02:16:27.956Z,12.46
2023-04-18T02:18:56.612Z,12.47
2023-04-18T02:21:25.094Z,12.50
2023-04-18T02:23:53.621Z,12.46
2023-04-18T02:26:23.475Z,12.48
2023-04-18T02:28:51.684Z,12.48
2023-04-18T02:31:19.792Z,12.46
2023-04-18T02:33:49.396Z,12.43
2023-04-18T02:36:17.800Z,12.44
2023-04-18T02:38:46.207Z,12.39
2023-04-18T02:41:17.557Z,12.29
2023-04-18T02:43:45.654Z,12.22
2023-04-18T02:46:16.365Z,12.16
2023-04-18T02:48:47.581Z,12.05
2023-04-18T02:51:20.066Z,12.05
2023-04-18T02:53:48.664Z,12.01
2023-04-18T02:56:18.236Z,11.99
2023-04-18T02:59:11.193Z,11.95
2023-04-18T03:01:57.588Z,11.91
2023-04-18T03:04:31.951Z,11.89
2023-04-18T03:07:04.278Z,11.88
2023-04-18T03:09:36.591Z,11.88
2023-04-18T03:12:11.172Z,11.86
2023-04-18T03:14:40.273Z,11.86
2023-04-18T03:17:08.849Z,11.86
2023-04-18T03:19:41.393Z,11.85
2023-04-18T03:22:17.082Z,11.88
2023-04-18T03:25:00.242Z,11.86
2023-04-18T03:27:59.376Z,11.82
2023-04-18T03:30:29.553Z,11.81
2023-04-18T03:33:02.807Z,11.78
2023-04-18T03:35:31.503Z,11.71
2023-04-18T03:38:01.079Z,11.63
2023-04-18T03:40:34.725Z,11.54
2023-04-18T03:43:09.313Z,11.50
2023-04-18T03:45:37.863Z,11.47
2023-04-18T03:48:07.423Z,11.47
2023-04-18T03:50:41.485Z,11.48
2023-04-18T03:53:12.982Z,11.48
2023-04-18T03:55:41.333Z,11.47
2023-04-18T03:58:10.568Z,11.48
2023-04-18T04:00:42.434Z,11.47
2023-04-18T04:03:13.547Z,11.44
2023-04-18T04:05:41.990Z,11.41
2023-04-18T04:08:10.202Z,11.43
2023-04-18T04:10:39.828Z,11.43
2023-04-18T04:13:08.291Z,11.47
2023-04-18T04:15:40.122Z,11.50
2023-04-18T04:18:11.207Z,11.47
2023-04-18T04:20:43.227Z,11.53
2023-04-18T04:23:15.479Z,11.55
2023-04-18T04:25:48.259Z,11.57
2023-04-18T04:28:31.208Z,11.60
2023-04-18T04:31:06.940Z,11.64
2023-04-18T04:33:36.246Z,11.68
2023-04-18T04:36:10.167Z,11.67
2023-04-18T04:38:40.904Z,11.63
2023-04-18T04:41:11.988Z,11.60
2023-04-18T04:43:41.566Z,11.55
2023-04-18T04:46:13.789Z,11.50
2023-04-18T04:48:44.122Z,11.44
2023-04-18T04:51:12.470Z,11.33
2023-04-18T04:53:40.763Z,11.27
2023-04-18T04:56:11.306Z,11.19
2023-04-18T04:58:40.598Z,11.17
2023-04-18T05:01:19.971Z,11.12
2023-04-18T05:03:48.613Z,11.09
2023-04-18T05:06:20.665Z,11.12
2023-04-18T05:08:49.116Z,11.07
2023-04-18T05:11:19.278Z,11.09
2023-04-18T05:13:47.445Z,11.09
2023-04-18T05:16:15.654Z,11.09
2023-04-18T05:18:44.015Z,11.10
2023-04-18T05:21:12.116Z,11.12
2023-04-18T05:23:41.311Z,11.16
2023-04-18T05:26:09.677Z,11.20
2023-04-18T05:28:39.201Z,11.27
2023-04-18T05:31:07.604Z,11.30
2023-04-18T05:33:35.762Z,11.30
2023-04-18T05:36:04.233Z,11.30
2023-04-18T05:38:32.396Z,11.34
2023-04-18T05:41:00.591Z,11.40
2023-04-18T05:43:28.767Z,11.45
2023-04-18T05:45:58.401Z,11.48
2023-04-18T05:48:26.584Z,11.51
2023-04-18T05:50:54.706Z,11.45
2023-04-18T05:53:22.879Z,11.44
2023-04-18T05:55:51.442Z,11.47
2023-04-18T05:58:19.708Z,11.48
2023-04-18T06:00:48.411Z,11.48
2023-04-18T06:03:18.154Z,11.50
2023-04-18T06:05:46.554Z,11.53
2023-04-18T06:08:15.038Z,11.55
2023-04-18T06:10:43.182Z,11.57
2023-04-18T06:13:11.519Z,11.61
2023-04-18T06:15:39.728Z,11.68
2023-04-18T06:18:08.164Z,11.75
2023-04-18T06:20:37.926Z,11.82
2023-04-18T06:23:06.068Z,11.91
2023-04-18T06:25:34.334Z,11.96
2023-04-18T06:28:02.429Z,11.99
2023-04-18T06:30:31.534Z,12.03
2023-04-18T06:32:59.854Z,12.09
2023-04-18T06:35:28.176Z,12.18
2023-04-18T06:37:58.318Z,12.19
2023-04-18T06:40:26.502Z,12.19
2023-04-18T06:42:54.754Z,12.25
2023-04-18T06:45:22.984Z,12.25
2023-04-18T06:47:51.560Z,12.32
2023-04-18T06:50:20.208Z,12.34
2023-04-18T06:52:48.421Z,12.40
2023-04-18T06:55:17.980Z,12.47
2023-04-18T06:57:46.203Z,12.50
2023-04-18T07:00:15.423Z,12.56
2023-04-18T07:02:43.737Z,12.63
2023-04-18T07:05:12.132Z,12.68
2023-04-18T07:07:40.611Z,12.71
2023-04-18T07:10:11.504Z,12.73
2023-04-18T07:12:41.233Z,12.75
2023-04-18T07:15:13.000Z,12.77
2023-04-18T07:17:41.332Z,12.78
2023-04-18T07:20:12.969Z,12.80
2023-04-18T07:22:42.854Z,12.81
2023-04-18T07:25:11.406Z,12.83
2023-04-18T07:27:40.861Z,12.83
2023-04-18T07:30:10.215Z,12.84
2023-04-18T07:32:38.452Z,12.88
2023-04-18T07:35:07.902Z,12.95
2023-04-18T07:37:36.095Z,12.99
2023-04-18T07:40:07.617Z,13.01
2023-04-18T07:42:36.144Z,12.99
2023-04-18T07:45:06.784Z,12.99
2023-04-18T07:47:35.011Z,13.02
2023-04-18T07:50:04.350Z,13.04
2023-04-18T07:52:32.591Z,13.02
2023-04-18T07:55:01.154Z,13.08
2023-04-18T07:57:29.376Z,13.09
2023-04-18T07:59:57.636Z,13.13
2023-04-18T08:02:27.293Z,13.19
2023-04-18T08:04:56.294Z,13.23
2023-04-18T08:07:24.696Z,13.26
2023-04-18T08:09:55.069Z,13.35
2023-04-18T08:12:23.257Z,13.40
2023-04-18T08:14:51.496Z,13.46
2023-04-18T08:17:19.834Z,13.54
2023-04-18T08:19:49.469Z,13.66
2023-04-18T08:22:17.824Z,13.74
2023-04-18T08:24:57.468Z,13.91
2023-04-18T08:27:31.843Z,14.02
2023-04-18T08:30:00.716Z,14.09
2023-04-18T08:32:29.182Z,14.14
2023-04-18T08:34:58.749Z,14.12
2023-04-18T08:37:28.100Z,14.15
2023-04-18T08:39:56.365Z,14.24
2023-04-18T08:42:24.947Z,14.25
2023-04-18T08:44:56.159Z,14.24
2023-04-18T08:47:24.350Z,14.25
2023-04-18T08:49:53.682Z,14.32
2023-04-18T08:52:24.532Z,14.33
2023-04-18T08:54:52.809Z,14.40
2023-04-18T08:57:26.985Z,14.50
2023-04-18T08:59:55.733Z,14.60
2023-04-18T09:02:39.132Z,14.73
2023-04-18T09:05:13.286Z,14.80
2023-04-18T09:07:43.579Z,14.87
2023-04-18T09:10:12.768Z,14.97
2023-04-18T09:12:50.589Z,15.04
2023-04-18T09:15:22.644Z,15.14
2023-04-18T09:17:53.524Z,15.34
2023-04-18T09:20:35.804Z,15.45
2023-04-18T09:23:06.442Z,15.46
2023-04-18T09:25:36.079Z,15.39
2023-04-18T09:28:06.076Z,15.29
2023-04-18T09:30:38.118Z,15.31
2023-04-18T09:33:09.683Z,15.27
2023-04-18T09:35:38.545Z,15.25
2023-04-18T09:38:09.431Z,15.32
2023-04-18T09:40:37.838Z,15.39
2023-04-18T09:43:20.499Z,15.29
2023-04-18T09:45:49.766Z,15.25
2023-04-18T09:48:21.955Z,15.22
2023-04-18T09:50:51.079Z,15.31
2023-04-18T09:53:21.448Z,15.29
2023-04-18T09:55:52.209Z,15.35
2023-04-18T09:58:22.920Z,15.32
2023-04-18T10:00:52.568Z,15.27
2023-04-18T10:03:21.111Z,15.32
2023-04-18T10:05:50.356Z,15.35
2023-04-18T10:08:20.156Z,15.38
2023-04-18T10:10:48.331Z,15.48
2023-04-18T10:13:18.557Z,15.55
2023-04-18T10:15:47.365Z,15.52
2023-04-18T10:18:17.427Z,15.48
2023-04-18T10:20:48.512Z,15.46
2023-04-18T10:23:37.909Z,15.48
2023-04-18T10:26:07.072Z,15.48
2023-04-18T10:29:01.036Z,15.53
2023-04-18T10:31:30.391Z,15.59
2023-04-18T10:36:30.460Z,15.63
2023-04-18T10:39:04.364Z,15.67
2023-04-18T10:41:33.407Z,15.66
2023-04-18T10:44:31.741Z,15.71
2023-04-18T10:47:25.574Z,15.74
2023-04-18T10:50:01.605Z,15.79
2023-04-18T10:52:30.649Z,15.90
2023-04-18T10:55:29.981Z,16.01
2023-04-18T10:58:00.563Z,16.17
2023-04-18T11:00:30.204Z,16.34
2023-04-18T11:03:00.361Z,16.38
2023-04-18T11:05:30.247Z,16.45
2023-04-18T11:07:58.540Z,16.52
2023-04-18T11:10:29.572Z,16.61
2023-04-18T11:13:04.493Z,16.75
2023-04-18T11:15:32.890Z,16.82
2023-04-18T11:18:02.973Z,16.86
2023-04-18T11:20:38.544Z,16.93
2023-04-18T11:23:16.211Z,17.03
2023-04-18T11:25:47.214Z,16.89
2023-04-18T11:28:20.919Z,16.94
2023-04-18T11:30:49.589Z,17.02
2023-04-18T11:33:18.047Z,17.17
2023-04-18T11:35:47.421Z,17.32
2023-04-18T11:38:17.148Z,17.31
2023-04-18T11:40:50.425Z,17.35
2023-04-18T11:43:22.665Z,17.49
2023-04-18T11:45:55.364Z,17.64
2023-04-18T11:48:23.792Z,17.75
2023-04-18T11:50:52.226Z,17.82
2023-04-18T11:53:33.779Z,17.76
2023-04-18T11:56:04.080Z,17.64
2023-04-18T11:58:33.195Z,17.58
2023-04-18T12:01:17.085Z,17.49
2023-04-18T12:03:45.837Z,17.34
2023-04-18T12:06:14.201Z,17.24
2023-04-18T12:08:44.516Z,17.18
2023-04-18T12:11:21.654Z,17.23
2023-04-18T12:13:50.198Z,17.26
2023-04-18T12:16:18.362Z,17.31
2023-04-18T12:18:47.382Z,17.42
2023-04-18T12:21:17.162Z,17.38
2023-04-18T12:23:45.998Z,17.54
2023-04-18T12:26:18.287Z,17.59
2023-04-18T12:28:48.205Z,17.54
2023-04-18T12:31:16.517Z,17.51
2023-04-18T12:33:44.740Z,17.42
2023-04-18T12:36:13.043Z,17.51
2023-04-18T12:38:43.242Z,17.45
2023-04-18T12:41:11.515Z,17.44
2023-04-18T12:43:41.031Z,17.47
2023-04-18T12:46:09.293Z,17.55
2023-04-18T12:48:37.646Z,17.72
2023-04-18T12:51:06.986Z,17.99
2023-04-18T12:53:35.178Z,18.16
2023-04-18T12:56:03.606Z,18.71
2023-04-18T12:58:31.767Z,18.84
2023-04-18T13:01:01.717Z,18.65
2023-04-18T13:03:30.253Z,18.43
2023-04-18T13:05:58.567Z,18.27
2023-04-18T13:08:26.726Z,18.34
2023-04-18T13:10:54.912Z,18.26
2023-04-18T13:13:23.170Z,18.18
2023-04-18T13:15:52.005Z,18.04
2023-04-18T13:18:21.804Z,18.13
2023-04-18T13:20:50.782Z,18.13
2023-04-18T13:23:19.042Z,18.02
2023-04-18T13:25:47.281Z,17.96
2023-04-18T13:28:15.437Z,17.92
2023-04-18T13:30:43.600Z,17.89
2023-04-18T13:33:11.794Z,17.85
2023-04-18T13:35:43.407Z,17.95
2023-04-18T13:38:12.166Z,18.09
2023-04-18T13:40:40.310Z,18.41
2023-04-18T13:43:10.057Z,18.79
2023-04-18T13:45:38.343Z,18.98
2023-04-18T13:48:06.980Z,19.09
2023-04-18T13:50:35.327Z,19.03
2023-04-18T13:53:05.035Z,18.96
2023-04-18T13:55:33.196Z,18.60
2023-04-18T13:58:01.471Z,18.36
2023-04-18T14:00:30.399Z,18.13
2023-04-18T14:02:58.638Z,17.89
2023-04-18T14:05:27.180Z,17.64
2023-04-18T14:08:01.974Z,17.52
2023-04-18T14:10:32.443Z,17.49
2023-04-18T14:13:00.734Z,17.49
2023-04-18T14:15:30.971Z,17.48
2023-04-18T14:17:59.453Z,17.47
2023-04-18T14:20:36.417Z,17.42
2023-04-18T14:23:04.783Z,17.49
2023-04-18T14:25:34.882Z,17.57
2023-04-18T14:28:09.943Z,17.62
2023-04-18T14:30:38.950Z,17.64
2023-04-18T14:33:11.378Z,17.69
2023-04-18T14:35:40.686Z,17.72
2023-04-18T14:38:09.195Z,17.76
2023-04-18T14:40:39.102Z,17.79
2023-04-18T14:43:07.381Z,17.75
2023-04-18T14:45:36.024Z,17.75
2023-04-18T14:48:04.344Z,17.71
2023-04-18T14:50:32.698Z,17.66
2023-04-18T14:53:01.228Z,17.65
2023-04-18T14:55:29.485Z,17.74
2023-04-18T14:57:59.368Z,17.89
2023-04-18T15:00:28.359Z,18.02
2023-04-18T15:02:56.795Z,18.26
2023-04-18T15:05:26.488Z,18.52
2023-04-18T15:07:56.222Z,18.60
2023-04-18T15:10:24.583Z,18.79
2023-04-18T15:12:52.802Z,19.00
2023-04-18T15:15:22.735Z,19.19
2023-04-18T15:17:51.306Z,19.19
2023-04-18T15:20:21.287Z,19.00
2023-04-18T15:22:51.020Z,18.72
2023-04-18T15:25:19.422Z,18.51
2023-04-18T15:27:47.825Z,18.30
2023-04-18T15:30:18.481Z,18.20
2023-04-18T15:32:48.818Z,18.16
2023-04-18T15:35:17.402Z,18.22
2023-04-18T15:37:45.846Z,18.18
2023-04-18T15:40:16.439Z,18.20
2023-04-18T15:42:44.925Z,18.13
2023-04-18T15:45:13.714Z,18.16
2023-04-18T15:47:42.715Z,18.22
2023-04-18T15:50:12.695Z,18.26
2023-04-18T15:52:41.915Z,18.36
2023-04-18T15:55:12.359Z,18.47
2023-04-18T15:57:41.888Z,18.50
2023-04-18T16:00:15.977Z,18.33
2023-04-18T16:02:44.919Z,18.17
2023-04-18T16:05:15.682Z,18.17
2023-04-18T16:07:44.639Z,18.17
2023-04-18T16:10:13.032Z,18.24
2023-04-18T16:12:41.912Z,18.30
2023-04-18T16:15:11.627Z,18.38
2023-04-18T16:17:40.563Z,18.43
2023-04-18T16:20:09.515Z,18.44
2023-04-18T16:22:39.256Z,18.33
2023-04-18T16:25:08.682Z,18.26
2023-04-18T16:27:37.062Z,18.04
2023-04-18T16:30:06.270Z,17.96
2023-04-18T16:32:35.767Z,17.95
2023-04-18T16:35:07.985Z,17.90
2023-04-18T16:37:36.333Z,17.89
2023-04-18T16:40:09.914Z,17.78
2023-04-18T16:42:38.440Z,17.65
2023-04-18T16:45:08.129Z,17.57
2023-04-18T16:47:37.120Z,17.44
2023-04-18T16:50:07.686Z,17.32
2023-04-18T16:52:38.339Z,17.26
2023-04-18T16:55:09.613Z,17.18
2023-04-18T16:57:39.668Z,17.10
2023-04-18T17:00:13.779Z,17.03
2023-04-18T17:02:45.672Z,16.99
2023-04-18T17:05:14.343Z,16.94
2023-04-18T17:07:42.929Z,16.84
2023-04-18T17:10:14.024Z,16.79
2023-04-18T17:12:44.071Z,16.77
2023-04-18T17:15:12.901Z,16.72
2023-04-18T17:17:43.406Z,16.68
2023-04-18T17:20:12.747Z,16.56
2023-04-18T17:22:43.312Z,16.55
2023-04-18T17:25:14.637Z,16.52
2023-04-18T17:27:43.120Z,16.48
2023-04-18T17:30:12.721Z,16.40
2023-04-18T17:32:46.300Z,16.25
2023-04-18T17:35:16.303Z,16.15
2023-04-18T17:37:45.369Z,15.97
2023-04-18T17:40:18.817Z,15.79
2023-04-18T17:42:47.957Z,15.67
2023-04-18T17:45:17.390Z,15.48
2023-04-18T17:47:46.527Z,15.38
2023-04-18T17:50:15.341Z,15.35
2023-04-18T17:52:45.310Z,15.29
2023-04-18T17:55:17.667Z,15.27
2023-04-18T17:57:48.738Z,15.18
2023-04-18T18:00:19.034Z,15.14
2023-04-18T18:02:48.602Z,15.12
2023-04-18T18:05:18.897Z,15.11
2023-04-18T18:07:50.951Z,15.10
2023-04-18T18:10:23.992Z,15.10
2023-04-18T18:12:53.940Z,14.98
2023-04-18T18:15:26.197Z,14.79
2023-04-18T18:17:55.862Z,14.67
2023-04-18T18:20:25.263Z,14.62
2023-04-18T18:22:54.999Z,14.60
2023-04-18T18:25:25.895Z,14.55
2023-04-18T18:27:59.280Z,14.50
2023-04-18T18:30:28.793Z,14.49
2023-04-18T18:33:02.628Z,14.42
2023-04-18T18:35:31.899Z,14.35
2023-04-18T18:38:01.208Z,14.30
2023-04-18T18:40:33.061Z,14.35
2023-04-18T18:43:02.802Z,14.45
2023-04-18T18:45:32.240Z,14.42
2023-04-18T18:48:01.012Z,14.39
2023-04-18T18:50:29.501Z,14.36
2023-04-18T18:52:58.938Z,14.36
2023-04-18T18:55:29.438Z,14.33
2023-04-18T18:58:01.178Z,14.28
2023-04-18T19:00:36.037Z,14.24
2023-04-18T19:03:05.638Z,14.19
2023-04-18T19:05:40.599Z,14.17
2023-04-18T19:08:11.037Z,14.12
2023-04-18T19:10:44.040Z,14.05
2023-04-18T19:13:15.771Z,13.97
2023-04-18T19:15:45.241Z,13.98
2023-04-18T19:18:15.832Z,13.97
2023-04-18T19:20:49.599Z,13.95
2023-04-18T19:23:19.494Z,13.94
2023-04-18T19:25:48.753Z,13.97
2023-04-18T19:28:21.096Z,13.90
2023-04-18T19:30:50.142Z,13.60
2023-04-18T19:33:20.547Z,13.13
2023-04-18T19:35:50.293Z,12.83
2023-04-18T19:38:19.168Z,12.78
2023-04-18T19:40:51.743Z,12.78
2023-04-18T19:43:26.470Z,12.80
2023-04-18T19:45:58.321Z,12.84
2023-04-18T19:48:32.048Z,12.77
2023-04-18T19:51:04.886Z,12.58
2023-04-18T19:53:35.023Z,12.47
2023-04-18T19:56:05.185Z,12.36
2023-04-18T19:58:40.924Z,12.22
2023-04-18T20:01:10.861Z,12.13
2023-04-18T20:03:40.548Z,12.01
2023-04-18T20:06:10.148Z,12.09
2023-04-18T20:08:43.963Z,12.28
2023-04-18T20:11:15.427Z,12.48
2023-04-18T20:13:45.945Z,12.63
2023-04-18T20:16:17.529Z,12.69
2023-04-18T20:18:47.759Z,12.74
2023-04-18T20:21:17.447Z,12.77
2023-04-18T20:23:46.567Z,12.88
2023-04-18T20:26:16.032Z,12.91
2023-04-18T20:28:48.212Z,12.88
2023-04-18T20:31:20.129Z,12.78
2023-04-18T20:33:50.356Z,12.74
2023-04-18T20:36:19.390Z,12.77
2023-04-18T20:38:50.745Z,12.89
2023-04-18T20:41:20.908Z,12.99
2023-04-18T20:43:54.087Z,13.06
2023-04-18T20:46:22.461Z,13.11
2023-04-18T20:48:50.609Z,13.16
2023-04-18T20:51:18.903Z,13.19
2023-04-18T20:53:47.582Z,13.19
2023-04-18T20:56:15.968Z,13.19
2023-04-18T20:58:45.256Z,13.19
2023-04-18T21:01:15.191Z,13.18
2023-04-18T21:03:44.395Z,13.25
2023-04-18T21:06:12.864Z,13.23
2023-04-18T21:08:41.151Z,13.20
2023-04-18T21:11:09.730Z,13.18
2023-04-18T21:13:39.125Z,13.18
2023-04-18T21:16:10.306Z,13.15
2023-04-18T21:18:40.062Z,13.11
2023-04-18T21:21:09.030Z,13.06
2023-04-18T21:23:43.281Z,13.08
2023-04-18T21:26:13.642Z,13.06
2023-04-18T21:28:58.636Z,13.04
2023-04-18T21:31:28.009Z,13.04
2023-04-18T21:33:59.116Z,13.06
2023-04-18T21:36:28.956Z,13.05
2023-04-18T21:38:58.556Z,13.05
2023-04-18T21:41:27.215Z,13.05
2023-04-18T21:43:57.647Z,13.05
2023-04-18T21:46:26.572Z,13.08
2023-04-18T21:48:55.018Z,13.06
2023-04-18T21:51:24.642Z,12.99
2023-04-18T21:53:53.838Z,12.96
2023-04-18T21:56:22.143Z,12.95
2023-04-18T21:58:50.737Z,12.94
2023-04-18T22:01:18.905Z,12.94
2023-04-18T22:03:47.300Z,12.91
2023-04-18T22:06:15.575Z,12.92
2023-04-18T22:08:45.125Z,12.89
2023-04-18T22:11:13.780Z,12.87
2023-04-18T22:13:45.058Z,12.89
2023-04-18T22:16:13.727Z,12.85
2023-04-18T22:18:41.988Z,12.83
2023-04-18T22:21:10.677Z,12.87
2023-04-18T22:23:58.937Z,12.87
2023-04-18T22:26:33.104Z,12.85
2023-04-18T22:29:01.335Z,12.83
2023-04-18T22:31:29.764Z,12.78
2023-04-18T22:33:57.940Z,12.74
2023-04-18T22:36:27.725Z,12.74
2023-04-18T22:38:55.944Z,12.83
2023-04-18T22:41:25.971Z,12.84
2023-04-18T22:43:54.209Z,12.80
2023-04-18T22:46:22.886Z,12.77
2023-04-18T22:48:51.135Z,12.74
2023-04-18T22:51:20.385Z,12.65
2023-04-18T22:53:48.513Z,12.69
2023-04-18T22:56:17.559Z,12.74
2023-04-18T22:58:47.172Z,12.75
2023-04-18T23:01:15.494Z,12.81
2023-04-18T23:03:44.028Z,12.87
2023-04-18T23:06:12.865Z,12.89
2023-04-18T23:08:41.126Z,12.91
2023-04-18T23:11:10.824Z,12.89
2023-04-18T23:13:39.053Z,12.95
2023-04-18T23:16:09.653Z,12.98
2023-04-18T23:18:37.942Z,13.01
2023-04-18T23:21:06.090Z,13.04
2023-04-18T23:23:34.497Z,13.02
2023-04-18T23:26:03.015Z,13.04
2023-04-18T23:28:31.266Z,13.05
2023-04-18T23:30:59.417Z,13.02
2023-04-18T23:33:29.174Z,13.04
2023-04-18T23:35:57.382Z,13.05
2023-04-18T23:38:25.657Z,13.05
2023-04-18T23:40:54.079Z,13.05
2023-04-18T23:43:22.303Z,12.99
2023-04-18T23:45:52.536Z,12.92
2023-04-18T23:48:20.794Z,12.87
2023-04-18T23:50:52.546Z,12.83
2023-04-18T23:53:21.180Z,12.77
2023-04-18T23:55:51.076Z,12.73
2023-04-18T23:58:19.460Z,12.73
